FMMIFMNN

Guest
Details From FMMI - IVATO
To FMNN - FASCENE
Flight Number -
Tags generated
Created
Modified
Stats Distance 423 nm / 784 km
Max Altitude 35,000 ft / 10,668 m
Waypoints 7
Social Downloads 1
Likes 0
Share VATSIM

Download

Looking for another format? Having issues loading an existing format? Contact us
Advertisement - Login to hide

Notes

Basic altitude profile: - Ascent Rate: 2500ft/min - Ascent Speed: 250kts - Cruise Altitude: 12500ft - Cruise Speed: 180kts - Descent Rate: 1500ft/min - Descent Speed: 250kts Options: - Use NATs: yes - Use PACOTS: yes - Use low airways: yes - Use high airways: yes

Route

FMMI TNV UB459 UVGET UG661 ANDIL FMNN

ID Type Via Altitude (ft/m) Position (lat/lon) Dist (leg/tot) Name
O FMMI APT - 0 / 0 -18.79695 / 47.47881 - / 0 nm IVATO
TNV VOR - 800 / 244 -18.80333 / 47.51867 2 / 2 nm IVATO VOR-DME
GATLA FIX UB459 (AWY-HI) 35,000 / 10,668 -16.62361 / 48.81750 150 / 152 nm
TIKAP FIX UB459 (AWY-HI) 35,000 / 10,668 -16.02111 / 49.17028 41 / 194 nm
UVGET FIX UB459 (AWY-HI) 33,000 / 10,058 -15.00583 / 49.76861 70 / 264 nm
ANDIL FIX UG661 (AWY-HI) 24,500 / 7,468 -13.71306 / 48.00611 128 / 393 nm
O FMNN APT - 0 / 0 -13.31207 / 48.31482 30 / 423 nm FASCENE

Altitude Profile

Advertisement - Login to hide

Weather


0- 5 10 15 20 25 30 35+ Temperature / °C

Clouds and Precipitation
Forecast for 2018-10-20 00:00 UTC. Updated 3 hours ago

Ground ~20,000 ft ~40,000 ft Winds

FMMI

Details ICAO FMMI (TNR)
Name Ivato Int'l
Region Comoros, Mayotte, Réunion and Madagascar
Timezone Indian/Antananarivo (UTC+3.0)
Stats Elevation 4,198 ft / 1,280 m (AMSL)
Location -18.797000° 47.478800°
Runways 1
Magnetic Variation 15.186° W

METAR

FMMI 200030Z 00000KT 8000 FEW007 16/15 Q1018 NOSIG

Decode

TAF

TAF FMMI 192300Z 2000/2106 10006KT 9999 FEW017 SCT020 PROB30 2001/2005 2000 BR BECMG 2006/2009 32010KT BECMG 2018/2021 VRB03KT

Decode

Departure Runways

ID Width Length Bearing (true/mag) Surface Threshold Overrun Markings Lighting
11 148 ft / 45 m 10,180 ft / 3,103 m 98.92° / 114.10° ASPHALT 0 ft / 0 m 207 ft / 63 m PREC-APP EDGE THRESHOLD ALSF-I
29 148 ft / 45 m 10,180 ft / 3,103 m 278.91° / 294.09° ASPHALT 0 ft / 0 m 190 ft / 58 m PREC-APP EDGE THRESHOLD ALSF-I REIL-OMNI

FMNN

Details ICAO FMNN (NOS)
Name Nosy-Be Fascene
Region Comoros, Mayotte, Réunion and Madagascar
Timezone Indian/Antananarivo (UTC+3.0)
Stats Elevation 35 ft / 11 m (AMSL)
Location -13.312200° 48.314700°
Runways 1
Magnetic Variation 9.476° W

METAR

Not found

TAF

TAF FMNN 192300Z 2000/2024 06006KT 9999 SCT020 SCT040 PROB30 TEMPO 2000/2006 4500 TSRA BECMG 2006/2009 30010KT

Decode

Destination Runways

ID Width Length Bearing (true/mag) Surface Threshold Overrun Markings Lighting
05 148 ft / 45 m 7,323 ft / 2,232 m 42.93° / 52.41° ASPHALT 2,306 ft / 703 m 0 ft / 0 m APP EDGE THRESHOLD
23 148 ft / 45 m 7,323 ft / 2,232 m 222.93° / 232.40° ASPHALT 0 ft / 0 m 0 ft / 0 m APP EDGE THRESHOLD

Popular Alternatives